createdAt,value
2019-05-29T00:01:52.645Z,184.23
2019-05-29T00:04:23.386Z,169.27
2019-05-29T00:06:54.246Z,167.43
2019-05-29T00:09:25.258Z,153.43
2019-05-29T00:11:57.421Z,147.50
2019-05-29T00:14:28.399Z,218.47
2019-05-29T00:16:59.235Z,182.63
2019-05-29T00:19:30.378Z,155.03
2019-05-29T00:22:01.304Z,234.90
2019-05-29T00:24:32.340Z,168.23
2019-05-29T00:27:03.288Z,158.90
2019-05-29T00:29:34.006Z,153.23
2019-05-29T00:32:05.068Z,127.47
2019-05-29T00:34:36.043Z,146.87
2019-05-29T00:37:08.548Z,117.53
2019-05-29T00:39:39.628Z,139.83
2019-05-29T00:42:11.111Z,136.20
2019-05-29T00:44:42.105Z,107.03
2019-05-29T00:47:13.613Z,115.70
2019-05-29T00:49:44.688Z,133.90
2019-05-29T00:52:16.615Z,152.07
2019-05-29T00:54:47.675Z,136.07
2019-05-29T00:57:19.009Z,130.13
2019-05-29T00:59:50.105Z,145.40
2019-05-29T01:02:21.056Z,114.53
2019-05-29T01:04:52.070Z,208.90
2019-05-29T01:07:23.023Z,148.33
2019-05-29T01:09:53.860Z,168.97
2019-05-29T01:12:24.762Z,75.93
2019-05-29T01:14:55.496Z,39.70
2019-05-29T01:17:26.465Z,28.73
2019-05-29T01:19:57.265Z,31.60
2019-05-29T01:22:28.251Z,15.17
2019-05-29T01:24:58.945Z,17.43
2019-05-29T01:27:30.091Z,16.60
2019-05-29T01:30:00.836Z,16.07
2019-05-29T01:32:31.675Z,17.40
2019-05-29T01:35:02.516Z,17.87
2019-05-29T01:37:33.864Z,18.50
2019-05-29T01:40:18.764Z,12.80
2019-05-29T01:42:37.243Z,13.70
2019-05-29T01:45:08.905Z,16.73
2019-05-29T01:47:39.981Z,14.97
2019-05-29T01:50:12.225Z,10.77
2019-05-29T01:52:43.371Z,12.93
2019-05-29T01:55:15.728Z,9.47
2019-05-29T01:57:47.414Z,14.17
2019-05-29T02:00:19.895Z,14.07
2019-05-29T02:02:51.335Z,13.23
2019-05-29T02:05:22.170Z,9.70
2019-05-29T02:07:53.191Z,14.70
2019-05-29T02:10:24.385Z,12.27
2019-05-29T02:12:55.521Z,15.73
2019-05-29T02:15:32.504Z,13.30
2019-05-29T02:17:59.107Z,13.73
2019-05-29T02:20:29.916Z,12.53
2019-05-29T02:23:01.051Z,17.63
2019-05-29T02:25:31.952Z,13.50
2019-05-29T02:28:02.988Z,17.60
2019-05-29T02:30:33.799Z,13.97
2019-05-29T02:33:04.702Z,16.00
2019-05-29T02:35:35.496Z,14.80
2019-05-29T02:38:07.259Z,11.93
2019-05-29T02:40:38.262Z,11.83
2019-05-29T02:43:09.238Z,8.03
2019-05-29T02:45:53.917Z,11.87
2019-05-29T02:48:12.592Z,11.97
2019-05-29T02:50:43.608Z,12.43
2019-05-29T02:53:14.465Z,12.93
2019-05-29T02:55:45.247Z,8.97
2019-05-29T02:58:16.112Z,9.37
2019-05-29T03:00:55.529Z,9.17
2019-05-29T03:03:29.523Z,10.13
2019-05-29T03:05:59.282Z,9.63
2019-05-29T03:08:32.482Z,8.37
2019-05-29T03:11:04.328Z,11.03
2019-05-29T03:13:35.345Z,7.67
2019-05-29T03:16:11.467Z,8.43
2019-05-29T03:18:38.759Z,6.23
2019-05-29T03:21:09.393Z,6.10
2019-05-29T03:23:40.216Z,7.00
2019-05-29T03:26:11.066Z,7.10
2019-05-29T03:28:42.040Z,4.17
2019-05-29T03:31:12.942Z,9.33
2019-05-29T03:33:48.597Z,5.60
2019-05-29T03:36:16.336Z,5.87
2019-05-29T03:38:47.701Z,9.07
2019-05-29T03:41:18.671Z,8.97
2019-05-29T03:43:49.726Z,4.17
2019-05-29T03:46:31.530Z,9.07
2019-05-29T03:48:53.188Z,4.87
2019-05-29T03:51:24.133Z,3.47
2019-05-29T03:53:55.134Z,5.77
2019-05-29T03:56:26.469Z,4.60
2019-05-29T03:58:57.591Z,6.67
2019-05-29T04:01:29.161Z,4.40
2019-05-29T04:04:00.586Z,4.30
2019-05-29T04:06:33.251Z,7.30
2019-05-29T04:09:06.136Z,8.33
2019-05-29T04:11:37.838Z,6.67
2019-05-29T04:14:09.144Z,5.17
2019-05-29T04:16:58.499Z,5.30
2019-05-29T04:19:15.851Z,6.33
2019-05-29T04:21:47.188Z,6.73
2019-05-29T04:24:21.345Z,7.43
2019-05-29T04:26:54.689Z,5.33
2019-05-29T04:29:25.836Z,7.83
2019-05-29T04:31:56.724Z,5.10
2019-05-29T04:34:29.448Z,13.17
2019-05-29T04:37:00.236Z,4.53
2019-05-29T04:39:32.751Z,4.23
2019-05-29T04:42:03.820Z,7.60
2019-05-29T04:44:36.277Z,5.70
2019-05-29T04:47:11.599Z,5.57
2019-05-29T04:49:39.974Z,2.93
2019-05-29T04:52:11.014Z,4.30
2019-05-29T04:54:42.290Z,4.13
2019-05-29T04:57:13.064Z,7.07
2019-05-29T04:59:44.007Z,3.97
2019-05-29T05:02:26.737Z,5.73
2019-05-29T05:04:57.695Z,6.07
2019-05-29T05:07:29.655Z,4.87
2019-05-29T05:10:01.114Z,11.83
2019-05-29T05:12:33.536Z,10.10
2019-05-29T05:15:05.054Z,6.80
2019-05-29T05:17:36.054Z,8.37
2019-05-29T05:20:07.630Z,6.83
2019-05-29T05:22:38.689Z,9.67
2019-05-29T05:25:10.440Z,9.20
2019-05-29T05:27:41.277Z,9.33
2019-05-29T05:30:12.118Z,7.43
2019-05-29T05:32:43.030Z,7.80
2019-05-29T05:35:14.706Z,10.83
2019-05-29T05:37:45.855Z,10.57
2019-05-29T05:40:16.879Z,8.83
2019-05-29T05:42:47.795Z,8.47
2019-05-29T05:45:19.086Z,10.10
2019-05-29T05:47:57.478Z,7.50
2019-05-29T05:50:23.206Z,16.37
2019-05-29T05:52:55.110Z,14.83
2019-05-29T05:55:26.214Z,8.83
2019-05-29T05:57:57.102Z,6.97
2019-05-29T06:00:33.964Z,10.87
2019-05-29T06:03:05.576Z,8.80
2019-05-29T06:05:38.094Z,7.00
2019-05-29T06:08:09.111Z,8.87
2019-05-29T06:10:40.969Z,9.43
2019-05-29T06:13:11.985Z,8.17
2019-05-29T06:15:43.094Z,5.13
2019-05-29T06:18:21.626Z,10.73
2019-05-29T06:20:49.003Z,11.17
2019-05-29T06:23:19.856Z,8.77
2019-05-29T06:25:50.853Z,8.40
2019-05-29T06:28:21.709Z,7.77
2019-05-29T06:30:52.815Z,6.17
2019-05-29T06:33:24.013Z,11.37
2019-05-29T06:35:55.047Z,5.37
2019-05-29T06:38:26.070Z,5.47
2019-05-29T06:40:57.022Z,8.37
2019-05-29T06:43:28.128Z,7.17
2019-05-29T06:45:59.219Z,5.53
2019-05-29T06:48:42.731Z,7.27
2019-05-29T06:51:04.276Z,10.77
2019-05-29T06:53:35.684Z,7.57
2019-05-29T06:56:08.018Z,10.93
2019-05-29T06:58:40.026Z,8.30
2019-05-29T07:01:11.306Z,8.40
2019-05-29T07:03:43.751Z,7.77
2019-05-29T07:06:15.193Z,10.73
2019-05-29T07:08:48.383Z,6.10
2019-05-29T07:11:19.178Z,6.47
2019-05-29T07:13:50.855Z,5.23
2019-05-29T07:16:22.167Z,5.97
2019-05-29T07:19:23.840Z,5.40
2019-05-29T07:21:26.342Z,3.77
2019-05-29T07:23:57.470Z,5.37
2019-05-29T07:26:28.484Z,4.33
2019-05-29T07:29:07.960Z,5.20
2019-05-29T07:31:33.423Z,5.57
2019-05-29T07:34:04.583Z,5.93
2019-05-29T07:36:37.805Z,5.63
2019-05-29T07:39:08.786Z,3.10
2019-05-29T07:41:39.941Z,2.90
2019-05-29T07:44:10.894Z,3.33
2019-05-29T07:46:42.293Z,6.27
2019-05-29T07:49:13.464Z,4.87
2019-05-29T07:51:45.093Z,4.03
2019-05-29T07:54:16.590Z,3.93
2019-05-29T07:56:48.613Z,2.73
2019-05-29T07:59:19.786Z,4.23
2019-05-29T08:01:50.851Z,4.17
2019-05-29T08:04:21.888Z,3.77
2019-05-29T08:06:54.613Z,3.80
2019-05-29T08:09:25.586Z,3.30
2019-05-29T08:11:56.532Z,3.83
2019-05-29T08:14:27.534Z,2.40
2019-05-29T08:16:58.631Z,4.13
2019-05-29T08:19:29.610Z,4.97
2019-05-29T08:22:01.082Z,2.43
2019-05-29T08:24:32.212Z,9.00
2019-05-29T08:27:03.188Z,6.67
2019-05-29T08:29:34.206Z,26.20
2019-05-29T08:32:05.566Z,5.70
2019-05-29T08:34:36.634Z,1.73
2019-05-29T08:37:07.868Z,2.40
2019-05-29T08:39:39.820Z,2.63
2019-05-29T08:42:22.368Z,4.10
2019-05-29T08:44:45.411Z,2.87
2019-05-29T08:47:16.514Z,4.67
2019-05-29T08:49:50.669Z,3.00
2019-05-29T08:52:20.135Z,3.27
2019-05-29T08:54:52.206Z,3.73
2019-05-29T08:57:23.233Z,2.10
2019-05-29T08:59:54.335Z,3.30
2019-05-29T09:02:25.454Z,3.80
2019-05-29T09:04:56.474Z,4.40
2019-05-29T09:07:27.455Z,3.70
2019-05-29T09:09:59.574Z,4.10
2019-05-29T09:12:30.713Z,3.47
2019-05-29T09:15:01.735Z,4.30
2019-05-29T09:17:34.530Z,5.80
2019-05-29T09:20:06.649Z,3.53
2019-05-29T09:22:39.010Z,7.27
2019-05-29T09:25:11.212Z,6.17
2019-05-29T09:27:42.211Z,4.13
2019-05-29T09:30:13.889Z,4.23
2019-05-29T09:32:50.887Z,4.03
2019-05-29T09:35:20.169Z,5.27
2019-05-29T09:37:51.587Z,6.37
2019-05-29T09:40:23.096Z,5.57
2019-05-29T09:42:54.255Z,4.90
2019-05-29T09:45:25.585Z,4.93
2019-05-29T09:47:56.690Z,5.63
2019-05-29T09:50:27.819Z,5.80
2019-05-29T09:53:02.205Z,7.23
2019-05-29T09:55:34.011Z,3.87
2019-05-29T09:58:05.054Z,5.50
2019-05-29T10:00:36.170Z,6.30
2019-05-29T10:03:07.104Z,6.50
2019-05-29T10:05:38.065Z,3.10
2019-05-29T10:08:09.265Z,5.13
2019-05-29T10:10:40.368Z,8.37
2019-05-29T10:13:11.367Z,5.67
2019-05-29T10:15:42.377Z,4.47
2019-05-29T10:18:31.571Z,4.90
2019-05-29T10:20:46.345Z,5.93
2019-05-29T10:23:20.017Z,5.60
2019-05-29T10:25:50.085Z,5.73
2019-05-29T10:28:21.099Z,4.43
2019-05-29T10:30:52.727Z,6.00
2019-05-29T10:33:24.157Z,2.97
2019-05-29T10:35:55.553Z,4.80
2019-05-29T10:38:26.736Z,4.67
2019-05-29T10:41:06.316Z,6.20
2019-05-29T10:43:42.932Z,8.20
2019-05-29T10:46:13.770Z,5.33
2019-05-29T10:48:48.683Z,4.43
2019-05-29T10:51:17.384Z,5.60
2019-05-29T10:53:50.379Z,5.80
2019-05-29T10:56:21.591Z,11.17
2019-05-29T10:58:59.143Z,7.03
2019-05-29T11:01:26.614Z,5.40
2019-05-29T11:03:57.494Z,6.47
2019-05-29T11:06:28.302Z,3.30
2019-05-29T11:08:59.373Z,5.23
2019-05-29T11:11:30.192Z,5.77
2019-05-29T11:14:01.336Z,11.93
2019-05-29T11:16:32.471Z,4.20
2019-05-29T11:19:03.510Z,4.57
2019-05-29T11:21:34.549Z,5.73
2019-05-29T11:24:05.598Z,7.10
2019-05-29T11:26:36.676Z,5.20
2019-05-29T11:29:07.659Z,4.37
2019-05-29T11:31:38.517Z,5.77
2019-05-29T11:34:09.723Z,5.73
2019-05-29T11:36:40.695Z,3.17
2019-05-29T11:39:12.367Z,7.20
2019-05-29T11:41:43.287Z,4.03
2019-05-29T11:44:14.456Z,6.73
2019-05-29T11:46:45.372Z,7.53
2019-05-29T11:49:16.515Z,4.20
2019-05-29T11:51:47.580Z,4.45
2019-05-29T11:54:20.130Z,3.23
2019-05-29T11:56:52.275Z,5.50
2019-05-29T11:59:24.117Z,5.63
2019-05-29T12:01:56.845Z,3.90
2019-05-29T12:04:28.122Z,4.30
2019-05-29T12:06:59.498Z,6.30
2019-05-29T12:09:33.251Z,3.80
2019-05-29T12:12:03.285Z,5.73
2019-05-29T12:14:34.299Z,5.47
2019-05-29T12:17:05.329Z,3.60
2019-05-29T12:19:36.504Z,6.70
2019-05-29T12:22:07.427Z,7.28
2019-05-29T12:24:38.367Z,4.55
2019-05-29T12:27:10.325Z,4.28
2019-05-29T12:29:41.470Z,4.10
2019-05-29T12:32:12.879Z,5.35
2019-05-29T12:34:53.230Z,5.17
2019-05-29T12:37:16.968Z,6.58
2019-05-29T12:39:48.098Z,7.67
2019-05-29T12:42:19.031Z,5.70
2019-05-29T12:44:50.051Z,6.27
2019-05-29T12:47:21.017Z,5.77
2019-05-29T12:49:53.570Z,6.23
2019-05-29T12:52:24.849Z,6.00
2019-05-29T12:54:56.219Z,11.75
2019-05-29T12:57:27.433Z,4.00
2019-05-29T12:59:58.609Z,8.10
2019-05-29T13:02:29.465Z,2.87
2019-05-29T13:05:08.391Z,4.58
2019-05-29T13:07:33.151Z,6.35
2019-05-29T13:10:05.125Z,3.00
2019-05-29T13:12:36.136Z,2.53
2019-05-29T13:15:08.201Z,3.62
2019-05-29T13:17:39.212Z,3.63
2019-05-29T13:20:20.981Z,6.27
2019-05-29T13:22:44.722Z,6.40
2019-05-29T13:25:17.402Z,6.70
2019-05-29T13:27:48.206Z,4.30
2019-05-29T13:30:19.912Z,4.97
2019-05-29T13:32:50.770Z,12.47
2019-05-29T13:35:22.701Z,4.25
2019-05-29T13:37:53.617Z,5.47
2019-05-29T13:40:24.846Z,6.63
2019-05-29T13:42:56.263Z,4.55
2019-05-29T13:45:27.241Z,5.78
2019-05-29T13:47:59.119Z,6.45
2019-05-29T13:50:30.425Z,4.00
2019-05-29T13:53:01.372Z,3.90
2019-05-29T13:55:32.729Z,5.62
2019-05-29T13:58:07.778Z,2.02
2019-05-29T14:00:39.336Z,5.53
2019-05-29T14:03:10.478Z,3.90
2019-05-29T14:05:41.507Z,3.37
2019-05-29T14:08:12.556Z,4.67
2019-05-29T14:10:43.605Z,3.40
2019-05-29T14:13:14.648Z,3.87
2019-05-29T14:15:45.697Z,4.70
2019-05-29T14:18:16.613Z,3.10
2019-05-29T14:20:47.794Z,4.37
2019-05-29T14:23:19.825Z,4.60
2019-05-29T14:25:51.705Z,2.55
2019-05-29T14:28:22.667Z,3.83
2019-05-29T14:30:53.864Z,4.90
2019-05-29T14:33:24.708Z,1.95
2019-05-29T14:35:55.787Z,5.42
2019-05-29T14:38:26.887Z,4.70
2019-05-29T14:40:58.352Z,3.40
2019-05-29T14:43:29.332Z,4.00
2019-05-29T14:46:00.295Z,1.98
2019-05-29T14:48:31.273Z,4.47
2019-05-29T14:51:03.618Z,2.25
2019-05-29T14:53:35.055Z,3.50
2019-05-29T14:56:06.593Z,4.45
2019-05-29T14:58:37.558Z,3.47
2019-05-29T15:01:09.172Z,5.53
2019-05-29T15:03:40.156Z,5.43
2019-05-29T15:06:11.790Z,4.20
2019-05-29T15:08:42.976Z,3.15
2019-05-29T15:11:14.210Z,4.85
2019-05-29T15:13:45.036Z,2.60
2019-05-29T15:16:16.176Z,3.62
2019-05-29T15:18:47.471Z,3.50
2019-05-29T15:21:18.596Z,4.17
2019-05-29T15:23:49.477Z,2.22
2019-05-29T15:26:20.557Z,6.87
2019-05-29T15:28:51.502Z,3.70
2019-05-29T15:31:22.549Z,5.20
2019-05-29T15:33:54.499Z,3.87
2019-05-29T15:36:25.653Z,4.42
2019-05-29T15:38:56.785Z,4.37
2019-05-29T15:41:27.905Z,7.70
2019-05-29T15:43:58.780Z,5.67
2019-05-29T15:46:31.260Z,4.53
2019-05-29T15:49:02.180Z,4.28
2019-05-29T15:51:33.318Z,3.23
2019-05-29T15:54:04.146Z,4.85
2019-05-29T15:56:35.213Z,5.50
2019-05-29T15:59:07.770Z,5.72
2019-05-29T16:01:38.933Z,5.17
2019-05-29T16:04:09.777Z,4.12
2019-05-29T16:06:41.009Z,4.07
2019-05-29T16:09:12.165Z,2.77
2019-05-29T16:11:43.176Z,4.17
2019-05-29T16:14:14.927Z,6.07
2019-05-29T16:16:46.211Z,6.53
2019-05-29T16:19:18.366Z,2.60
2019-05-29T16:21:49.510Z,5.20
2019-05-29T16:24:20.438Z,8.40
2019-05-29T16:26:51.484Z,3.72
2019-05-29T16:29:22.641Z,5.85
2019-05-29T16:31:53.609Z,5.10
2019-05-29T16:34:24.387Z,5.85
2019-05-29T16:36:55.399Z,5.40
2019-05-29T16:39:26.378Z,2.90
2019-05-29T16:41:57.525Z,2.50
2019-05-29T16:44:29.586Z,3.65
2019-05-29T16:47:01.346Z,6.80
2019-05-29T16:49:32.284Z,5.60
2019-05-29T16:52:03.412Z,7.80
2019-05-29T16:54:34.388Z,3.42
2019-05-29T16:57:05.622Z,6.37
2019-05-29T16:59:36.494Z,3.37
2019-05-29T17:02:07.602Z,7.62
2019-05-29T17:04:39.664Z,4.05
2019-05-29T17:07:10.997Z,4.28
2019-05-29T17:09:41.848Z,5.77
2019-05-29T17:12:12.699Z,3.80
2019-05-29T17:14:43.633Z,5.45
2019-05-29T17:17:15.405Z,2.35
2019-05-29T17:19:47.637Z,4.80
2019-05-29T17:22:18.919Z,3.27
2019-05-29T17:24:50.129Z,7.47
2019-05-29T17:27:21.438Z,5.20
2019-05-29T17:29:56.276Z,4.03
2019-05-29T17:32:27.453Z,3.17
2019-05-29T17:34:58.402Z,3.35
2019-05-29T17:37:29.447Z,4.20
2019-05-29T17:40:00.932Z,8.90
2019-05-29T17:42:32.272Z,3.65
2019-05-29T17:45:03.996Z,5.03
2019-05-29T17:47:35.226Z,2.27
2019-05-29T17:50:06.913Z,3.37
2019-05-29T17:52:37.933Z,3.62
2019-05-29T17:55:09.072Z,4.33
2019-05-29T17:57:40.524Z,2.50
2019-05-29T18:00:12.937Z,4.30
2019-05-29T18:02:52.061Z,6.58
2019-05-29T18:05:18.470Z,2.75
2019-05-29T18:07:49.527Z,3.27
2019-05-29T18:10:22.484Z,4.45
2019-05-29T18:12:53.836Z,2.90
2019-05-29T18:15:25.691Z,2.77
2019-05-29T18:17:56.728Z,2.08
2019-05-29T18:20:27.955Z,2.08
2019-05-29T18:22:59.073Z,2.07
2019-05-29T18:25:30.026Z,3.63
2019-05-29T18:28:02.441Z,5.00
2019-05-29T18:30:33.822Z,7.63
2019-05-29T18:33:04.855Z,5.33
2019-05-29T18:35:35.895Z,4.70
2019-05-29T18:38:07.208Z,2.97
2019-05-29T18:40:38.183Z,2.63
2019-05-29T18:43:11.266Z,4.40
2019-05-29T18:45:42.304Z,4.37
2019-05-29T18:48:14.599Z,4.63
2019-05-29T18:50:45.620Z,4.30
2019-05-29T18:53:16.513Z,5.07
2019-05-29T18:55:47.535Z,4.43
2019-05-29T18:58:19.386Z,3.07
2019-05-29T19:00:51.701Z,5.37
2019-05-29T19:03:23.480Z,4.23
2019-05-29T19:05:54.532Z,6.53
2019-05-29T19:08:25.754Z,4.03
2019-05-29T19:10:56.895Z,3.33
2019-05-29T19:13:28.017Z,14.70
2019-05-29T19:15:59.477Z,7.43
2019-05-29T19:18:30.495Z,5.03
2019-05-29T19:21:01.694Z,3.30
2019-05-29T19:23:33.076Z,6.07
2019-05-29T19:26:04.165Z,2.47
2019-05-29T19:28:35.327Z,2.90
2019-05-29T19:31:07.509Z,4.10
2019-05-29T19:33:38.620Z,12.37
2019-05-29T19:36:11.208Z,4.57
2019-05-29T19:38:43.159Z,4.40
2019-05-29T19:41:14.547Z,5.80
2019-05-29T19:43:45.457Z,6.40
2019-05-29T19:46:17.566Z,3.93
2019-05-29T19:48:48.946Z,6.47
2019-05-29T19:51:21.319Z,6.00
2019-05-29T19:53:52.355Z,7.10
2019-05-29T19:56:23.727Z,9.67
2019-05-29T19:58:54.987Z,6.33
2019-05-29T20:01:32.779Z,7.87
2019-05-29T20:03:59.206Z,7.97
2019-05-29T20:06:30.991Z,7.17
2019-05-29T20:09:02.004Z,5.67
2019-05-29T20:11:35.611Z,8.10
2019-05-29T20:14:07.634Z,6.35
2019-05-29T20:16:39.398Z,8.63
2019-05-29T20:19:11.495Z,7.30
2019-05-29T20:21:42.575Z,4.77
2019-05-29T20:24:13.814Z,4.13
2019-05-29T20:26:44.806Z,4.67
2019-05-29T20:29:15.841Z,11.30
2019-05-29T20:31:46.714Z,7.33
2019-05-29T20:34:17.443Z,5.77
2019-05-29T20:36:48.478Z,5.90
2019-05-29T20:39:19.310Z,6.03
2019-05-29T20:41:50.281Z,5.63
2019-05-29T20:44:21.101Z,6.90
2019-05-29T20:46:52.130Z,7.33
2019-05-29T20:49:23.968Z,5.50
2019-05-29T20:51:55.021Z,4.77
2019-05-29T20:54:25.847Z,10.90
2019-05-29T20:57:00.062Z,8.10
2019-05-29T20:59:32.124Z,8.47
2019-05-29T21:02:02.995Z,7.30
2019-05-29T21:04:34.574Z,8.77
2019-05-29T21:07:05.795Z,3.13
2019-05-29T21:09:39.190Z,5.50
2019-05-29T21:12:10.218Z,6.63
2019-05-29T21:14:41.726Z,6.30
2019-05-29T21:17:12.997Z,5.30
2019-05-29T21:19:44.752Z,2.93
2019-05-29T21:22:15.801Z,5.10
2019-05-29T21:24:58.261Z,5.63
2019-05-29T21:27:19.412Z,7.17
2019-05-29T21:29:50.250Z,5.97
2019-05-29T21:32:21.176Z,8.83
2019-05-29T21:34:52.020Z,9.20
2019-05-29T21:37:22.755Z,4.17
2019-05-29T21:39:53.506Z,6.90
2019-05-29T21:42:24.537Z,2.63
2019-05-29T21:44:55.375Z,4.73
2019-05-29T21:47:27.441Z,5.80
2019-05-29T21:49:58.172Z,8.90
2019-05-29T21:52:29.051Z,10.37
2019-05-29T21:54:59.948Z,11.03
2019-05-29T21:57:30.986Z,14.43
2019-05-29T22:00:02.848Z,10.17
2019-05-29T22:02:35.361Z,9.17
2019-05-29T22:05:07.085Z,11.47
2019-05-29T22:07:38.590Z,11.00
2019-05-29T22:10:09.700Z,5.03
2019-05-29T22:12:40.624Z,5.13
2019-05-29T22:15:11.620Z,5.30
2019-05-29T22:17:42.646Z,4.43
2019-05-29T22:20:13.656Z,6.17
2019-05-29T22:22:44.480Z,7.37
2019-05-29T22:25:15.612Z,6.47
2019-05-29T22:27:46.656Z,5.60
2019-05-29T22:30:18.105Z,3.60
2019-05-29T22:32:49.043Z,9.87
2019-05-29T22:35:19.869Z,4.83
2019-05-29T22:37:51.525Z,7.87
2019-05-29T22:40:22.460Z,7.47
2019-05-29T22:42:53.479Z,7.53
2019-05-29T22:45:24.456Z,4.27
2019-05-29T22:47:56.212Z,4.20
2019-05-29T22:50:26.946Z,6.23
2019-05-29T22:52:57.873Z,10.43
2019-05-29T22:55:28.824Z,11.13
2019-05-29T22:58:00.175Z,5.03
2019-05-29T23:00:30.903Z,6.20
2019-05-29T23:03:02.429Z,7.37
2019-05-29T23:05:33.354Z,4.00
2019-05-29T23:08:04.335Z,4.20
2019-05-29T23:10:35.182Z,4.43
2019-05-29T23:13:06.194Z,6.77
2019-05-29T23:15:36.958Z,3.63
2019-05-29T23:18:08.087Z,5.03
2019-05-29T23:20:38.827Z,5.87
2019-05-29T23:23:09.770Z,6.90
2019-05-29T23:25:40.600Z,9.20
2019-05-29T23:28:11.527Z,5.97
2019-05-29T23:30:42.384Z,9.20
2019-05-29T23:33:13.733Z,3.73
2019-05-29T23:35:44.752Z,8.60
2019-05-29T23:38:17.080Z,6.17
2019-05-29T23:40:47.879Z,4.03
2019-05-29T23:43:18.615Z,6.03
2019-05-29T23:45:49.301Z,6.97
2019-05-29T23:48:20.318Z,5.33
2019-05-29T23:50:51.113Z,9.60
2019-05-29T23:53:22.915Z,6.33
2019-05-29T23:55:54.230Z,6.30
2019-05-29T23:58:26.018Z,6.93
